createdAt,value
2016-11-21T00:00:36.040Z,0
2016-11-21T00:01:49.773Z,0
2016-11-21T00:03:03.487Z,0
2016-11-21T00:04:17.200Z,0
2016-11-21T00:05:31.004Z,0
2016-11-21T00:06:44.709Z,0
2016-11-21T00:08:00.091Z,0
2016-11-21T00:09:16.226Z,0
2016-11-21T00:10:30.889Z,0
2016-11-21T00:11:44.792Z,0
2016-11-21T00:12:58.516Z,0
2016-11-21T00:14:12.534Z,0
2016-11-21T00:15:26.250Z,0
2016-11-21T00:16:39.963Z,0
2016-11-21T00:17:53.706Z,0
2016-11-21T00:19:04.833Z,0
2016-11-21T00:20:18.541Z,0
2016-11-21T00:21:32.239Z,0
2016-11-21T00:22:45.939Z,0
2016-11-21T00:23:59.698Z,0
2016-11-21T00:25:13.422Z,0
2016-11-21T00:26:27.328Z,0
2016-11-21T00:27:41.092Z,0
2016-11-21T00:28:54.841Z,0
2016-11-21T00:30:08.526Z,0
2016-11-21T00:31:20.957Z,0
2016-11-21T00:32:34.878Z,0
2016-11-21T00:33:48.592Z,0
2016-11-21T00:35:02.286Z,0
2016-11-21T00:36:16.018Z,0
2016-11-21T00:37:29.840Z,0
2016-11-21T00:38:43.557Z,0
2016-11-21T00:39:57.304Z,0
2016-11-21T00:41:11.014Z,0
2016-11-21T00:42:24.711Z,0
2016-11-21T00:43:38.406Z,0
2016-11-21T00:44:50.868Z,0
2016-11-21T00:46:04.766Z,0
2016-11-21T00:47:18.482Z,0
2016-11-21T00:48:32.193Z,0
2016-11-21T00:49:45.893Z,0
2016-11-21T00:50:59.595Z,0
2016-11-21T00:52:13.366Z,0
2016-11-21T00:53:27.093Z,0
2016-11-21T00:54:39.508Z,0
2016-11-21T00:55:51.922Z,0
2016-11-21T00:57:05.629Z,0
2016-11-21T00:58:19.352Z,0
2016-11-21T00:59:33.062Z,0
2016-11-21T01:00:46.985Z,0
2016-11-21T01:02:00.748Z,0
2016-11-21T01:03:14.445Z,0
2016-11-21T01:04:28.172Z,0
2016-11-21T01:05:41.929Z,0
2016-11-21T01:06:55.629Z,0
2016-11-21T01:08:09.456Z,0
2016-11-21T01:09:23.228Z,0
2016-11-21T01:10:36.956Z,0
2016-11-21T01:11:50.690Z,0
2016-11-21T01:13:04.420Z,0
2016-11-21T01:14:18.128Z,0
2016-11-21T01:15:31.831Z,0
2016-11-21T01:16:45.536Z,0
2016-11-21T01:17:59.229Z,0
2016-11-21T01:19:11.845Z,0
2016-11-21T01:20:23.013Z,0
2016-11-21T01:21:36.696Z,0
2016-11-21T01:22:50.395Z,0
2016-11-21T01:24:04.102Z,0
2016-11-21T01:25:17.811Z,0
2016-11-21T01:26:31.533Z,0
2016-11-21T01:27:45.260Z,0
2016-11-21T01:28:58.953Z,0
2016-11-21T01:30:12.643Z,0
2016-11-21T01:31:26.356Z,0
2016-11-21T01:32:40.114Z,0
2016-11-21T01:33:53.809Z,0
2016-11-21T01:35:07.579Z,0
2016-11-21T01:36:20.026Z,0
2016-11-21T01:37:33.729Z,0
2016-11-21T01:38:47.419Z,0
2016-11-21T01:40:01.123Z,0
2016-11-21T01:41:13.761Z,0
2016-11-21T01:42:27.453Z,0
2016-11-21T01:43:41.144Z,0
2016-11-21T01:44:54.837Z,0
2016-11-21T01:46:08.527Z,0
2016-11-21T01:47:22.307Z,0
2016-11-21T01:48:36.241Z,0
2016-11-21T01:49:49.934Z,0
2016-11-21T01:51:03.664Z,0
2016-11-21T01:52:17.363Z,0
2016-11-21T01:53:31.054Z,0
2016-11-21T01:54:44.754Z,0
2016-11-21T01:55:58.458Z,0
2016-11-21T01:57:12.167Z,0
2016-11-21T01:58:25.874Z,0
2016-11-21T01:59:39.592Z,0
2016-11-21T02:00:53.329Z,0
2016-11-21T02:02:07.024Z,0
2016-11-21T02:03:20.718Z,0
2016-11-21T02:04:33.137Z,0
2016-11-21T02:05:46.855Z,0
2016-11-21T02:07:00.553Z,0
2016-11-21T02:08:14.280Z,0
2016-11-21T02:09:27.966Z,0
2016-11-21T02:10:41.674Z,0
2016-11-21T02:11:55.396Z,0
2016-11-21T02:13:09.094Z,0
2016-11-21T02:14:22.811Z,0
2016-11-21T02:15:36.500Z,0
2016-11-21T02:16:50.217Z,0
2016-11-21T02:18:03.887Z,0
2016-11-21T02:19:17.630Z,0
2016-11-21T02:20:31.557Z,0
2016-11-21T02:21:44.201Z,0
2016-11-21T02:22:57.899Z,0
2016-11-21T02:24:11.608Z,0
2016-11-21T02:25:25.312Z,0
2016-11-21T02:26:39.004Z,0
2016-11-21T02:27:52.730Z,0
2016-11-21T02:29:06.448Z,0
2016-11-21T02:30:20.156Z,0
2016-11-21T02:31:33.855Z,0
2016-11-21T02:32:47.548Z,0
2016-11-21T02:34:01.262Z,0
2016-11-21T02:35:15.203Z,0
2016-11-21T02:36:28.919Z,0
2016-11-21T02:37:40.059Z,0
2016-11-21T02:38:53.787Z,0
2016-11-21T02:40:07.492Z,0
2016-11-21T02:41:21.203Z,0
2016-11-21T02:42:34.902Z,0
2016-11-21T02:43:48.623Z,0
2016-11-21T02:45:01.029Z,0
2016-11-21T02:46:14.752Z,0
2016-11-21T02:47:28.488Z,0
2016-11-21T02:48:42.187Z,0
2016-11-21T02:49:55.883Z,0
2016-11-21T02:51:09.582Z,0
2016-11-21T02:52:21.983Z,0
2016-11-21T02:53:35.658Z,0
2016-11-21T02:54:49.349Z,0
2016-11-21T02:56:01.830Z,0
2016-11-21T02:57:15.517Z,0
2016-11-21T02:58:29.342Z,0
2016-11-21T02:59:43.031Z,0
2016-11-21T03:00:56.735Z,0
2016-11-21T03:02:10.434Z,0
2016-11-21T03:03:24.127Z,0
2016-11-21T03:04:37.853Z,0
2016-11-21T03:05:51.691Z,0
2016-11-21T03:07:05.394Z,0
2016-11-21T03:08:19.097Z,0
2016-11-21T03:09:32.818Z,0
2016-11-21T03:10:46.505Z,0
2016-11-21T03:12:00.233Z,0
2016-11-21T03:13:13.963Z,0
2016-11-21T03:14:27.666Z,0
2016-11-21T03:15:41.355Z,0
2016-11-21T03:16:53.869Z,0
2016-11-21T03:18:07.583Z,0
2016-11-21T03:19:21.268Z,0
2016-11-21T03:20:33.673Z,0
2016-11-21T03:21:47.412Z,0
2016-11-21T03:23:01.099Z,0
2016-11-21T03:24:15.099Z,0
2016-11-21T03:25:28.809Z,0
2016-11-21T03:26:42.499Z,0
2016-11-21T03:27:56.194Z,0
2016-11-21T03:29:09.900Z,0
2016-11-21T03:30:23.808Z,0
2016-11-21T03:31:37.577Z,0
2016-11-21T03:32:51.291Z,0
2016-11-21T03:34:04.983Z,0
2016-11-21T03:35:18.704Z,0
2016-11-21T03:36:32.408Z,0
2016-11-21T03:37:46.097Z,0
2016-11-21T03:38:59.784Z,0
2016-11-21T03:40:13.487Z,0
2016-11-21T03:41:25.894Z,0
2016-11-21T03:42:39.968Z,0
2016-11-21T03:43:53.651Z,0
2016-11-21T03:45:07.353Z,0
2016-11-21T03:46:21.311Z,0
2016-11-21T03:47:35.009Z,0
2016-11-21T03:48:46.124Z,0
2016-11-21T03:49:59.913Z,0
2016-11-21T03:51:13.601Z,0
2016-11-21T03:52:26.050Z,0
2016-11-21T03:53:40.033Z,0
2016-11-21T03:54:53.737Z,0
2016-11-21T03:56:07.441Z,0
2016-11-21T03:57:19.897Z,0
2016-11-21T03:58:33.736Z,0
2016-11-21T03:59:47.463Z,0
2016-11-21T04:01:01.175Z,0
2016-11-21T04:02:14.922Z,0
2016-11-21T04:03:28.635Z,0
2016-11-21T04:04:42.331Z,0
2016-11-21T04:05:56.019Z,0
2016-11-21T04:07:09.721Z,0
2016-11-21T04:08:22.146Z,0
2016-11-21T04:09:35.887Z,0
2016-11-21T04:10:49.585Z,0
2016-11-21T04:12:03.319Z,0
2016-11-21T04:13:17.019Z,0
2016-11-21T04:14:30.713Z,0
2016-11-21T04:15:44.462Z,0
2016-11-21T04:16:58.151Z,0
2016-11-21T04:18:11.852Z,0
2016-11-21T04:19:25.612Z,0
2016-11-21T04:20:39.455Z,0
2016-11-21T04:21:53.142Z,0
2016-11-21T04:23:06.838Z,0
2016-11-21T04:24:20.534Z,0
2016-11-21T04:25:34.230Z,0
2016-11-21T04:26:47.939Z,0
2016-11-21T04:28:01.657Z,0
2016-11-21T04:29:14.072Z,0
2016-11-21T04:30:27.758Z,0
2016-11-21T04:31:41.481Z,0
2016-11-21T04:32:55.403Z,0
2016-11-21T04:34:09.121Z,0
2016-11-21T04:35:22.812Z,0
2016-11-21T04:36:36.535Z,0
2016-11-21T04:37:50.280Z,0
2016-11-21T04:39:03.986Z,0
2016-11-21T04:40:17.680Z,0
2016-11-21T04:41:31.358Z,0
2016-11-21T04:42:45.137Z,0
2016-11-21T04:43:58.863Z,0
2016-11-21T04:45:12.609Z,0
2016-11-21T04:46:26.379Z,0
2016-11-21T04:47:40.104Z,0
2016-11-21T04:48:53.801Z,0
2016-11-21T04:50:07.539Z,0
2016-11-21T04:51:21.256Z,0
2016-11-21T04:52:34.952Z,0
2016-11-21T04:53:47.372Z,0
2016-11-21T04:55:01.349Z,0
2016-11-21T04:56:15.044Z,0
2016-11-21T04:57:28.734Z,0
2016-11-21T04:58:42.475Z,0
2016-11-21T04:59:56.170Z,0
2016-11-21T05:01:10.092Z,0
2016-11-21T05:02:23.827Z,0
2016-11-21T05:03:37.556Z,0
2016-11-21T05:04:51.262Z,0
2016-11-21T05:06:04.956Z,0
2016-11-21T05:07:18.700Z,0
2016-11-21T05:08:32.390Z,0
2016-11-21T05:09:46.110Z,0
2016-11-21T05:10:59.837Z,0
2016-11-21T05:12:13.543Z,0
2016-11-21T05:13:25.985Z,0
2016-11-21T05:14:39.677Z,0
2016-11-21T05:15:53.378Z,0
2016-11-21T05:17:07.095Z,0
2016-11-21T05:18:20.786Z,0
2016-11-21T05:19:34.491Z,0
2016-11-21T05:20:48.193Z,0
2016-11-21T05:22:01.893Z,0
2016-11-21T05:23:15.584Z,0
2016-11-21T05:24:29.295Z,0
2016-11-21T05:25:43.000Z,0
2016-11-21T05:26:56.694Z,0
2016-11-21T05:28:10.389Z,0
2016-11-21T05:29:24.081Z,0
2016-11-21T05:30:37.992Z,0
2016-11-21T05:31:51.687Z,0
2016-11-21T05:33:05.393Z,0
2016-11-21T05:34:19.089Z,0
2016-11-21T05:35:32.800Z,0
2016-11-21T05:36:46.505Z,0
2016-11-21T05:38:00.197Z,0
2016-11-21T05:39:13.874Z,0
2016-11-21T05:40:27.567Z,0
2016-11-21T05:41:41.275Z,0
2016-11-21T05:42:54.954Z,0
2016-11-21T05:44:08.732Z,0
2016-11-21T05:45:22.423Z,0
2016-11-21T05:46:36.108Z,0
2016-11-21T05:47:49.862Z,0
2016-11-21T05:49:03.611Z,0
2016-11-21T05:50:17.321Z,0
2016-11-21T05:51:31.044Z,0
2016-11-21T05:52:44.765Z,0
2016-11-21T05:53:58.469Z,0
2016-11-21T05:55:12.161Z,0
2016-11-21T05:56:25.864Z,0
2016-11-21T05:57:38.579Z,0
2016-11-21T05:58:52.270Z,0
2016-11-21T06:00:05.964Z,0
2016-11-21T06:01:19.670Z,0
2016-11-21T06:02:33.381Z,0
2016-11-21T06:03:47.118Z,0
2016-11-21T06:05:00.835Z,0
2016-11-21T06:06:14.555Z,0
2016-11-21T06:07:26.976Z,0
2016-11-21T06:08:40.685Z,4
2016-11-21T06:09:51.822Z,4
2016-11-21T06:11:04.223Z,0
2016-11-21T06:12:17.917Z,0
2016-11-21T06:13:31.642Z,4
2016-11-21T06:14:45.334Z,4
2016-11-21T06:15:59.034Z,4
2016-11-21T06:17:12.747Z,4
2016-11-21T06:18:26.467Z,8
2016-11-21T06:19:40.172Z,8
2016-11-21T06:20:53.886Z,8
2016-11-21T06:22:07.709Z,8
2016-11-21T06:23:21.438Z,16
2016-11-21T06:24:35.176Z,16
2016-11-21T06:25:47.575Z,20
2016-11-21T06:27:01.262Z,24
2016-11-21T06:28:15.029Z,28
2016-11-21T06:29:28.964Z,36
2016-11-21T06:30:42.683Z,44
2016-11-21T06:31:56.384Z,52
2016-11-21T06:33:10.090Z,68
2016-11-21T06:34:23.787Z,84
2016-11-21T06:35:37.487Z,100
2016-11-21T06:36:51.189Z,124
2016-11-21T06:38:04.888Z,140
2016-11-21T06:39:18.586Z,164
2016-11-21T06:40:32.283Z,184
2016-11-21T06:41:45.996Z,200
2016-11-21T06:42:59.698Z,216
2016-11-21T06:44:13.627Z,212
2016-11-21T06:45:27.330Z,204
2016-11-21T06:46:41.038Z,204
2016-11-21T06:47:54.734Z,204
2016-11-21T06:49:08.433Z,204
2016-11-21T06:50:22.154Z,208
2016-11-21T06:51:35.866Z,208
2016-11-21T06:52:49.557Z,212
2016-11-21T06:54:02.067Z,220
2016-11-21T06:55:15.851Z,236
2016-11-21T06:56:29.541Z,260
2016-11-21T06:57:43.490Z,292
2016-11-21T06:58:57.321Z,328
2016-11-21T07:00:11.060Z,368
2016-11-21T07:01:23.480Z,416
2016-11-21T07:02:37.198Z,472
2016-11-21T07:03:50.895Z,532
2016-11-21T07:05:04.632Z,580
2016-11-21T07:06:18.409Z,620
2016-11-21T07:07:32.109Z,652
2016-11-21T07:08:45.807Z,692
2016-11-21T07:09:59.503Z,724
2016-11-21T07:11:13.207Z,744
2016-11-21T07:12:26.914Z,760
2016-11-21T07:13:40.612Z,752
2016-11-21T07:14:53.030Z,728
2016-11-21T07:16:05.486Z,716
2016-11-21T07:17:19.179Z,740
2016-11-21T07:18:32.878Z,776
2016-11-21T07:19:46.596Z,836
2016-11-21T07:21:00.283Z,916
2016-11-21T07:22:13.974Z,996
2016-11-21T07:23:27.657Z,1108
2016-11-21T07:24:41.346Z,1248
2016-11-21T07:25:55.066Z,1416
2016-11-21T07:27:08.771Z,1588
2016-11-21T07:28:22.472Z,1748
2016-11-21T07:29:36.180Z,1892
2016-11-21T07:30:48.627Z,2008
2016-11-21T07:32:01.092Z,2088
2016-11-21T07:33:13.521Z,2124
2016-11-21T07:34:27.238Z,2116
2016-11-21T07:35:40.965Z,2120
2016-11-21T07:36:54.664Z,2148
2016-11-21T07:38:08.363Z,2220
2016-11-21T07:39:22.052Z,2360
2016-11-21T07:40:35.763Z,2504
2016-11-21T07:41:49.450Z,2680
2016-11-21T07:43:03.176Z,2856
2016-11-21T07:44:16.892Z,2996
2016-11-21T07:45:30.591Z,3088
2016-11-21T07:46:44.317Z,3116
2016-11-21T07:47:58.005Z,3100
2016-11-21T07:49:10.438Z,3028
2016-11-21T07:50:24.216Z,3032
2016-11-21T07:51:37.918Z,3168
2016-11-21T07:52:51.611Z,3340
2016-11-21T07:54:05.316Z,3440
2016-11-21T07:55:19.065Z,3516
2016-11-21T07:56:32.745Z,3568
2016-11-21T07:57:46.447Z,3504
2016-11-21T07:59:00.176Z,3572
2016-11-21T08:00:14.112Z,3720
2016-11-21T08:01:27.802Z,3892
2016-11-21T08:02:41.493Z,4048
2016-11-21T08:03:55.186Z,4148
2016-11-21T08:05:08.894Z,4196
2016-11-21T08:06:22.591Z,4292
2016-11-21T08:07:36.283Z,4436
2016-11-21T08:08:49.078Z,4624
2016-11-21T08:10:02.790Z,4764
2016-11-21T08:11:16.517Z,4888
2016-11-21T08:12:30.216Z,5116
2016-11-21T08:13:43.963Z,5336
2016-11-21T08:14:57.694Z,5480
2016-11-21T08:16:11.402Z,5532
2016-11-21T08:17:25.102Z,5552
2016-11-21T08:18:38.808Z,5512
2016-11-21T08:19:52.546Z,5348
2016-11-21T08:21:06.296Z,5164
2016-11-21T08:22:19.996Z,4968
2016-11-21T08:23:33.697Z,4804
2016-11-21T08:24:47.399Z,4700
2016-11-21T08:26:01.156Z,4608
2016-11-21T08:27:14.849Z,4584
2016-11-21T08:28:28.535Z,4580
2016-11-21T08:29:42.241Z,4560
2016-11-21T08:30:55.944Z,4544
2016-11-21T08:32:09.897Z,4532
2016-11-21T08:33:23.594Z,4528
2016-11-21T08:34:37.294Z,4528
2016-11-21T08:35:50.974Z,4596
2016-11-21T08:37:04.680Z,4672
2016-11-21T08:38:18.409Z,4872
2016-11-21T08:39:32.134Z,5312
2016-11-21T08:40:45.881Z,5900
2016-11-21T08:41:59.613Z,6492
2016-11-21T08:43:13.323Z,7060
2016-11-21T08:44:27.118Z,7540
2016-11-21T08:45:40.818Z,7972
2016-11-21T08:46:53.236Z,8460
2016-11-21T08:48:06.967Z,9424
2016-11-21T08:49:20.690Z,10604
2016-11-21T08:50:34.628Z,14896
2016-11-21T08:51:48.328Z,19520
2016-11-21T08:53:02.030Z,20192
2016-11-21T08:54:15.756Z,24384
2016-11-21T08:55:28.190Z,24192
2016-11-21T08:56:42.021Z,25152
2016-11-21T08:57:55.708Z,25152
2016-11-21T08:59:09.469Z,23584
2016-11-21T09:00:23.170Z,21248
2016-11-21T09:01:36.856Z,20288
2016-11-21T09:02:50.553Z,18048
2016-11-21T09:04:04.254Z,17760
2016-11-21T09:05:16.651Z,16192
2016-11-21T09:06:30.471Z,16800
2016-11-21T09:07:44.154Z,15424
2016-11-21T09:08:56.584Z,13856
2016-11-21T09:10:10.320Z,12604
2016-11-21T09:11:24.028Z,14548
2016-11-21T09:12:37.970Z,16640
2016-11-21T09:13:51.672Z,17824
2016-11-21T09:15:05.407Z,14040
2016-11-21T09:16:19.104Z,16800
2016-11-21T09:17:32.838Z,18560
2016-11-21T09:18:46.538Z,17152
2016-11-21T09:20:00.511Z,13668
2016-11-21T09:21:14.288Z,11124
2016-11-21T09:22:28.019Z,9400
2016-11-21T09:23:41.725Z,8284
2016-11-21T09:24:55.420Z,7780
2016-11-21T09:26:09.136Z,7916
2016-11-21T09:27:22.885Z,7924
2016-11-21T09:28:36.581Z,8028
2016-11-21T09:29:50.269Z,8068
2016-11-21T09:31:03.980Z,8244
2016-11-21T09:32:17.686Z,8292
2016-11-21T09:33:31.445Z,8540
2016-11-21T09:34:43.883Z,8800
2016-11-21T09:35:57.577Z,8808
2016-11-21T09:37:11.286Z,8716
2016-11-21T09:38:24.995Z,8328
2016-11-21T09:39:38.729Z,8760
2016-11-21T09:40:52.501Z,9320
2016-11-21T09:42:06.243Z,10728
2016-11-21T09:43:20.519Z,13784
2016-11-21T09:44:34.227Z,14604
2016-11-21T09:45:47.973Z,15552
2016-11-21T09:47:01.705Z,15808
2016-11-21T09:48:14.139Z,22464
2016-11-21T09:49:27.859Z,23968
2016-11-21T09:50:41.552Z,25728
2016-11-21T09:51:55.296Z,36672
2016-11-21T09:53:09.013Z,41184
2016-11-21T09:54:22.712Z,46528
2016-11-21T09:55:37.974Z,43520
2016-11-21T09:56:51.980Z,41632
2016-11-21T09:58:07.215Z,40640
2016-11-21T09:59:22.466Z,38848
2016-11-21T10:00:37.736Z,41280
2016-11-21T10:01:53.055Z,43296
2016-11-21T10:03:08.317Z,46400
2016-11-21T10:04:23.567Z,46720
2016-11-21T10:05:39.048Z,48832
2016-11-21T10:06:56.092Z,49344
2016-11-21T10:08:12.018Z,51968
2016-11-21T10:09:27.314Z,47232
2016-11-21T10:10:42.635Z,42752
2016-11-21T10:11:58.038Z,38592
2016-11-21T10:13:13.703Z,52576
2016-11-21T10:14:28.976Z,37888
2016-11-21T10:15:44.234Z,17152
2016-11-21T10:16:57.984Z,14064
2016-11-21T10:18:11.707Z,16480
2016-11-21T10:19:25.425Z,15968
2016-11-21T10:20:39.159Z,16800
2016-11-21T10:21:52.945Z,16320
2016-11-21T10:23:06.664Z,17472
2016-11-21T10:24:20.396Z,22592
2016-11-21T10:25:34.130Z,39904
2016-11-21T10:26:47.830Z,29472
2016-11-21T10:28:01.525Z,28320
2016-11-21T10:29:15.271Z,23104
2016-11-21T10:30:28.990Z,21248
2016-11-21T10:32:44.490Z,22048
2016-11-21T10:33:58.187Z,23968
2016-11-21T10:35:11.909Z,20320
2016-11-21T10:36:25.630Z,17408
2016-11-21T10:37:39.336Z,15096
2016-11-21T10:38:53.072Z,16480
2016-11-21T10:40:06.785Z,17632
2016-11-21T10:41:20.661Z,16320
2016-11-21T10:42:34.370Z,13764
2016-11-21T10:43:48.096Z,11816
2016-11-21T10:45:01.887Z,10980
2016-11-21T10:46:15.576Z,10116
2016-11-21T10:47:29.309Z,9896
2016-11-21T10:48:43.003Z,10080
2016-11-21T10:49:56.757Z,11120
2016-11-21T10:51:10.730Z,13816
2016-11-21T10:52:24.438Z,14144
2016-11-21T10:53:38.168Z,26816
2016-11-21T10:54:51.887Z,43872
2016-11-21T10:56:05.630Z,49152
2016-11-21T10:57:19.387Z,43936
2016-11-21T10:58:33.160Z,27168
2016-11-21T10:59:46.878Z,40160
2016-11-21T11:00:59.306Z,43136
2016-11-21T11:02:13.000Z,26752
2016-11-21T11:03:26.714Z,45440
2016-11-21T11:04:40.569Z,47616
2016-11-21T11:05:54.283Z,25312
2016-11-21T11:07:08.018Z,22112
2016-11-21T11:08:21.737Z,18176
2016-11-21T11:09:34.380Z,17600
2016-11-21T11:10:48.426Z,17376
2016-11-21T11:12:00.866Z,23904
2016-11-21T11:13:14.578Z,15744
2016-11-21T11:14:28.274Z,15244
2016-11-21T11:15:39.667Z,15744
2016-11-21T11:16:53.548Z,19648
2016-11-21T11:18:07.265Z,15232
2016-11-21T11:19:21.021Z,15580
2016-11-21T11:20:34.746Z,15520
2016-11-21T11:21:48.483Z,16832
2016-11-21T11:23:02.203Z,17056
2016-11-21T11:24:16.121Z,22336
2016-11-21T11:25:29.863Z,34368
2016-11-21T11:26:43.595Z,29536
2016-11-21T11:27:57.336Z,24224
2016-11-21T11:29:11.030Z,32896
2016-11-21T11:30:24.756Z,29952
2016-11-21T11:31:38.466Z,20928
2016-11-21T11:32:52.191Z,17952
2016-11-21T11:34:06.168Z,18336
2016-11-21T11:35:19.874Z,17664
2016-11-21T11:36:33.633Z,17440
2016-11-21T11:37:47.382Z,19392
2016-11-21T11:39:01.106Z,17504
2016-11-21T11:40:14.937Z,17696
2016-11-21T11:41:27.396Z,16928
2016-11-21T11:42:41.124Z,16512
2016-11-21T11:43:53.550Z,17056
2016-11-21T11:45:07.247Z,16480
2016-11-21T11:46:20.968Z,17536
2016-11-21T11:47:34.661Z,18624
2016-11-21T11:48:48.439Z,33792
2016-11-21T11:50:00.883Z,32288
2016-11-21T11:51:14.663Z,32928
2016-11-21T11:52:28.370Z,34272
2016-11-21T11:53:42.184Z,33376
2016-11-21T11:54:54.612Z,33984
2016-11-21T11:56:08.342Z,36736
2016-11-21T11:57:22.076Z,31168
2016-11-21T11:58:35.829Z,26784
2016-11-21T11:59:49.583Z,31872
2016-11-21T12:01:03.298Z,17952
2016-11-21T12:02:17.073Z,15644
2016-11-21T12:03:30.769Z,15620
2016-11-21T12:04:43.226Z,16704
2016-11-21T12:05:56.969Z,19584
2016-11-21T12:07:09.422Z,27264
2016-11-21T12:08:23.158Z,33568
2016-11-21T12:09:37.028Z,40128
2016-11-21T12:10:48.248Z,43360
2016-11-21T12:12:02.213Z,40832
2016-11-21T12:13:15.931Z,39456
2016-11-21T12:14:29.859Z,42880
2016-11-21T12:15:43.608Z,32736
2016-11-21T12:16:57.616Z,28576
2016-11-21T12:18:11.330Z,25376
2016-11-21T12:19:25.048Z,15744
2016-11-21T12:20:38.788Z,15140
2016-11-21T12:21:52.487Z,13484
2016-11-21T12:23:06.213Z,13160
2016-11-21T12:24:19.928Z,12884
2016-11-21T12:25:33.627Z,13276
2016-11-21T12:26:47.344Z,13212
2016-11-21T12:28:01.060Z,13372
2016-11-21T12:29:14.771Z,13868
2016-11-21T12:30:28.472Z,13596
2016-11-21T12:31:40.981Z,13464
2016-11-21T12:32:54.708Z,13288
2016-11-21T12:34:08.438Z,13300
2016-11-21T12:35:22.163Z,13328
2016-11-21T12:36:35.919Z,13640
2016-11-21T12:37:49.630Z,13252
2016-11-21T12:39:02.079Z,12932
2016-11-21T12:40:15.813Z,12760
2016-11-21T12:41:29.552Z,12928
2016-11-21T12:42:43.321Z,12472
2016-11-21T12:43:57.030Z,11524
2016-11-21T12:45:09.678Z,11268
2016-11-21T12:46:23.413Z,11016
2016-11-21T12:47:37.160Z,10632
2016-11-21T12:48:50.881Z,10160
2016-11-21T12:50:04.644Z,9816
2016-11-21T12:51:18.387Z,9404
2016-11-21T12:52:32.119Z,9072
2016-11-21T12:53:45.843Z,8916
2016-11-21T12:54:59.564Z,8780
2016-11-21T12:56:11.999Z,8660
2016-11-21T12:57:26.022Z,8196
2016-11-21T12:58:39.816Z,7772
2016-11-21T13:00:06.277Z,7416
2016-11-21T13:01:20.089Z,7252
2016-11-21T13:02:33.786Z,7208
2016-11-21T13:03:47.512Z,7332
2016-11-21T13:05:01.302Z,7500
2016-11-21T13:06:15.097Z,7600
2016-11-21T13:07:30.072Z,7668
2016-11-21T13:08:46.857Z,7588
2016-11-21T13:10:00.643Z,7328
2016-11-21T13:14:50.038Z,6252
2016-11-21T13:16:04.378Z,6036
2016-11-21T13:18:14.338Z,5860
2016-11-21T13:24:41.084Z,5048
2016-11-21T13:28:18.344Z,4692
2016-11-21T13:29:32.067Z,4740
2016-11-21T13:31:16.738Z,4892
2016-11-21T13:33:14.607Z,4964
2016-11-21T13:35:27.801Z,5224
2016-11-21T13:36:55.564Z,5500
2016-11-21T13:39:05.735Z,5820
2016-11-21T13:42:55.095Z,5332
2016-11-21T13:44:15.069Z,4916
2016-11-21T13:46:25.304Z,4336
2016-11-21T13:47:39.039Z,4068
2016-11-21T13:48:52.761Z,3808
2016-11-21T13:50:05.180Z,3520
2016-11-21T13:51:18.908Z,3260
2016-11-21T13:52:32.641Z,3060
2016-11-21T13:53:46.515Z,2888
2016-11-21T13:54:58.966Z,2820
2016-11-21T13:56:12.706Z,2752
2016-11-21T13:57:26.426Z,2684
2016-11-21T13:58:40.175Z,2604
2016-11-21T13:59:53.897Z,2532
2016-11-21T14:01:07.639Z,2484
2016-11-21T14:02:21.336Z,2444
2016-11-21T14:03:35.088Z,2388
2016-11-21T14:04:48.802Z,2332
2016-11-21T14:06:02.519Z,2308
2016-11-21T14:07:16.221Z,2324
2016-11-21T14:08:29.961Z,2344
2016-11-21T14:09:43.785Z,2352
2016-11-21T14:10:57.526Z,2344
2016-11-21T14:12:11.256Z,2368
2016-11-21T14:13:24.990Z,2444
2016-11-21T14:14:37.557Z,2544
2016-11-21T14:15:51.262Z,2588
2016-11-21T14:17:04.972Z,2528
2016-11-21T14:18:17.384Z,2388
2016-11-21T14:19:31.081Z,2236
2016-11-21T14:20:44.835Z,2084
2016-11-21T14:21:58.618Z,1948
2016-11-21T14:23:12.357Z,1832
2016-11-21T14:24:26.162Z,1752
2016-11-21T14:25:39.950Z,1704
2016-11-21T14:26:53.679Z,1668
2016-11-21T14:28:06.096Z,1632
2016-11-21T14:29:19.846Z,1580
2016-11-21T14:30:33.571Z,1504
2016-11-21T14:31:47.291Z,1428
2016-11-21T14:33:00.984Z,1360
2016-11-21T14:34:13.398Z,1308
2016-11-21T14:35:27.147Z,1268
2016-11-21T14:36:40.966Z,1248
2016-11-21T14:37:54.681Z,1240
2016-11-21T14:39:08.388Z,1228
2016-11-21T14:40:20.793Z,1216
2016-11-21T14:41:34.507Z,1192
2016-11-21T14:42:48.432Z,1156
2016-11-21T14:44:02.153Z,1108
2016-11-21T14:45:15.927Z,1036
2016-11-21T14:46:29.621Z,964
2016-11-21T14:47:43.373Z,888
2016-11-21T14:48:57.305Z,820
2016-11-21T14:50:11.038Z,752
2016-11-21T14:51:23.673Z,696
2016-11-21T14:52:37.411Z,644
2016-11-21T14:53:49.885Z,596
2016-11-21T14:55:03.584Z,548
2016-11-21T14:56:17.291Z,500
2016-11-21T14:57:31.232Z,464
2016-11-21T14:58:44.972Z,420
2016-11-21T14:59:58.903Z,380
2016-11-21T15:01:12.720Z,348
2016-11-21T15:02:25.420Z,312
2016-11-21T15:03:39.166Z,284
2016-11-21T15:04:52.883Z,256
2016-11-21T15:06:05.329Z,236
2016-11-21T15:07:17.786Z,220
2016-11-21T15:08:31.487Z,200
2016-11-21T15:09:45.190Z,188
2016-11-21T15:10:58.891Z,176
2016-11-21T15:12:12.595Z,164
2016-11-21T15:13:26.297Z,152
2016-11-21T15:14:40.024Z,144
2016-11-21T15:15:53.756Z,136
2016-11-21T15:17:07.516Z,124
2016-11-21T15:18:21.283Z,116
2016-11-21T15:19:34.995Z,100
2016-11-21T15:20:48.700Z,88
2016-11-21T15:22:02.408Z,80
2016-11-21T15:23:16.337Z,68
2016-11-21T15:24:30.055Z,60
2016-11-21T15:25:43.919Z,52
2016-11-21T15:26:57.655Z,48
2016-11-21T15:28:10.089Z,40
2016-11-21T15:29:23.830Z,32
2016-11-21T15:30:37.524Z,24
2016-11-21T15:31:51.289Z,24
2016-11-21T15:33:03.700Z,20
2016-11-21T15:34:17.413Z,16
2016-11-21T15:35:31.127Z,12
2016-11-21T15:36:43.550Z,8
2016-11-21T15:37:57.346Z,8
2016-11-21T15:39:11.044Z,8
2016-11-21T15:40:24.781Z,8
2016-11-21T15:41:38.541Z,4
2016-11-21T15:42:52.261Z,4
2016-11-21T15:44:05.957Z,4
2016-11-21T15:45:18.414Z,4
2016-11-21T15:46:30.840Z,4
2016-11-21T15:47:44.544Z,0
2016-11-21T15:48:58.259Z,0
2016-11-21T15:50:11.993Z,0
2016-11-21T15:51:24.477Z,0
2016-11-21T15:52:38.176Z,0
2016-11-21T15:53:51.870Z,0
2016-11-21T15:55:05.640Z,0
2016-11-21T15:56:19.362Z,0
2016-11-21T15:57:33.063Z,0
2016-11-21T15:58:46.803Z,0
2016-11-21T16:00:00.535Z,0
2016-11-21T16:01:14.285Z,0
2016-11-21T16:02:28.066Z,0
2016-11-21T16:03:41.771Z,0
2016-11-21T16:04:54.202Z,0
2016-11-21T16:06:07.893Z,0
2016-11-21T16:07:21.586Z,0
2016-11-21T16:08:35.328Z,0
2016-11-21T16:09:49.117Z,0
2016-11-21T16:11:02.858Z,0
2016-11-21T16:12:16.570Z,0
2016-11-21T16:13:30.717Z,0
2016-11-21T16:14:44.456Z,0
2016-11-21T16:15:58.147Z,0
2016-11-21T16:17:11.858Z,0
2016-11-21T16:18:25.617Z,0
2016-11-21T16:19:39.334Z,0
2016-11-21T16:20:53.075Z,0
2016-11-21T16:22:06.799Z,0
2016-11-21T16:23:20.572Z,0
2016-11-21T16:24:33.357Z,0
2016-11-21T16:25:47.117Z,0
2016-11-21T16:27:00.818Z,0
2016-11-21T16:28:14.551Z,0
2016-11-21T16:29:26.962Z,0
2016-11-21T16:30:40.684Z,0
2016-11-21T16:31:54.563Z,0
2016-11-21T16:33:08.279Z,0
2016-11-21T16:34:22.003Z,0
2016-11-21T16:35:35.706Z,0
2016-11-21T16:36:49.444Z,0
2016-11-21T16:38:03.208Z,0
2016-11-21T16:39:16.945Z,0
2016-11-21T16:40:30.739Z,0
2016-11-21T16:41:44.704Z,0
2016-11-21T16:42:58.406Z,0
2016-11-21T16:44:12.116Z,0
2016-11-21T16:45:25.823Z,0
2016-11-21T16:46:38.282Z,0
2016-11-21T16:47:52.001Z,0
2016-11-21T16:49:05.734Z,0
2016-11-21T16:50:47.759Z,0
2016-11-21T16:52:00.219Z,0
2016-11-21T16:53:12.745Z,0
2016-11-21T16:54:26.454Z,0
2016-11-21T16:55:40.385Z,0
2016-11-21T16:56:54.333Z,0
2016-11-21T16:58:08.022Z,0
2016-11-21T16:59:21.721Z,0
2016-11-21T17:00:35.533Z,0
2016-11-21T17:01:49.520Z,0
2016-11-21T17:03:01.975Z,0
2016-11-21T17:04:15.900Z,0
2016-11-21T17:05:29.612Z,0
2016-11-21T17:06:43.315Z,0
2016-11-21T17:07:55.723Z,0
2016-11-21T17:09:09.479Z,0
2016-11-21T17:10:23.175Z,0
2016-11-21T17:11:36.890Z,0
2016-11-21T17:12:50.634Z,0
2016-11-21T17:14:04.344Z,0
2016-11-21T17:15:18.062Z,0
2016-11-21T17:16:31.802Z,0
2016-11-21T17:17:45.663Z,0
2016-11-21T17:18:59.601Z,0
2016-11-21T17:20:13.354Z,0
2016-11-21T17:21:27.084Z,0
2016-11-21T17:22:39.634Z,0
2016-11-21T17:23:53.361Z,0
2016-11-21T17:25:07.117Z,0
2016-11-21T17:26:20.839Z,0
2016-11-21T17:27:34.555Z,0